»·PEaware :: NKS2956 KLAS-KSEA

NKS2956 :: KLAS-KSEA

FLIGHT INFORMATION

Flight Status: Arrived
Operator:
Spirit Airlines
More flights by this operator :: More flights under this callsign
Pilot: Anonymous 12254 (12254)
Aircraft: AIRBUS A320
(A320)
More flights by this aircraft type
Origin: KLAS McCarran Intl
United States
Destination: KSEA Seattle-Tacoma Intl
United States
More flights between these airports :: More routes between these airports
Route: SHEAD1 OAL LOMIA LKV HAWKZ7
File this flight plan on PilotEdge
Remarks:
Altitude:
(Current/Filed)
32,000ft
Speed:
(Current/Filed)
450kts
Departed: 17-Sep-20 03:53 PM
Arrived: 17-Sep-20 05:51 PM
Distance/Time
Traveled:
752nm/1:58
Distance/Time
To Go:
Arrived

Flight Plot

Page will automatically refresh every two minutes.

Flight plan parsing failed; only flown route is shown


Map Options




Map Legend


Flown Route
Filed Route
Departure Airport
Arrival Airport
Navaid (VOR, NDB)
Fix

Horizontal Profiles

Position Reports

Time Latitude Longitude Heading Altitude Ground
Speed
17-Sep-20 15:18 36.080828 -115.140137 129 2075ft 0kts
17-Sep-20 15:19 36.080828 -115.140137 129 2075ft 0kts
17-Sep-20 15:20 36.080828 -115.140137 129 2075ft 0kts
17-Sep-20 15:21 36.080828 -115.140137 129 2075ft 0kts
17-Sep-20 15:22 36.080828 -115.140137 129 2075ft 0kts
17-Sep-20 15:23 36.080828 -115.140137 129 2075ft 0kts
17-Sep-20 15:24 36.080828 -115.140137 129 2075ft 0kts
17-Sep-20 15:25 36.080828 -115.140137 129 2075ft 0kts
17-Sep-20 15:26 36.080828 -115.140137 129 2075ft 0kts
17-Sep-20 15:27 36.080828 -115.140137 129 2075ft 0kts
17-Sep-20 15:28 36.080828 -115.140137 129 2075ft 0kts
17-Sep-20 15:29 36.080828 -115.140137 129 2075ft 0kts
17-Sep-20 15:30 36.080828 -115.140137 129 2075ft 0kts
17-Sep-20 15:31 36.080828 -115.140137 129 2075ft 0kts
17-Sep-20 15:32 36.080828 -115.140137 129 2075ft 0kts
17-Sep-20 15:33 36.080828 -115.140137 129 2075ft 0kts
17-Sep-20 15:34 36.080836 -115.140148 129 2075ft 0kts
17-Sep-20 15:35 36.081060 -115.140483 129 2075ft 0kts
17-Sep-20 15:36 36.081123 -115.140641 10 2075ft 0kts
17-Sep-20 15:37 36.081111 -115.140645 355 2075ft 0kts
17-Sep-20 15:38 36.080205 -115.141561 177 2082ft 12kts
17-Sep-20 15:39 36.079835 -115.141554 180 2083ft 0kts
17-Sep-20 15:40 36.079835 -115.141554 180 2083ft 0kts
17-Sep-20 15:41 36.079375 -115.141561 180 2084ft 5kts
17-Sep-20 15:42 36.079128 -115.141564 181 2084ft 0kts
17-Sep-20 15:43 36.079128 -115.141564 181 2084ft 0kts
17-Sep-20 15:44 36.078998 -115.141567 181 2084ft 4kts
17-Sep-20 15:45 36.077617 -115.144912 275 2097ft 20kts
17-Sep-20 15:46 36.078027 -115.152156 270 2121ft 21kts
17-Sep-20 15:47 36.077990 -115.159165 269 2147ft 20kts
17-Sep-20 15:48 36.078026 -115.166215 269 2170ft 20kts
17-Sep-20 15:49 36.077566 -115.170597 199 2184ft 0kts
17-Sep-20 15:50 36.077566 -115.170597 199 2184ft 0kts
17-Sep-20 15:51 36.077566 -115.170597 199 2184ft 0kts
17-Sep-20 15:52 36.076410 -115.160158 89 2156ft 141kts
17-Sep-20 15:53 36.076719 -115.089664 89 2977ft 243kts
17-Sep-20 15:54 36.077203 -115.004176 90 4600ft 251kts
17-Sep-20 15:55 36.064254 -114.921428 143 6543ft 258kts
17-Sep-20 15:56 35.995487 -114.897689 171 8526ft 264kts
17-Sep-20 15:57 35.928719 -114.922458 227 10506ft 276kts
17-Sep-20 15:58 35.878967 -114.998414 230 12487ft 304kts
17-Sep-20 15:59 35.826448 -115.080847 253 14492ft 316kts
17-Sep-20 16:00 35.831677 -115.190582 272 16488ft 330kts
17-Sep-20 16:01 35.841606 -115.309286 272 18473ft 365kts
17-Sep-20 16:02 35.852690 -115.441392 273 19054ft 403kts
17-Sep-20 16:03 35.864060 -115.578828 273 19053ft 402kts
17-Sep-20 16:04 35.875262 -115.715921 272 19052ft 402kts
17-Sep-20 16:05 35.886338 -115.853241 272 19248ft 403kts
17-Sep-20 16:06 35.912244 -115.987430 305 20724ft 422kts
17-Sep-20 16:07 35.998064 -116.088553 313 22201ft 431kts
17-Sep-20 16:08 36.086188 -116.190249 313 23702ft 438kts
17-Sep-20 16:09 36.175974 -116.294116 313 25207ft 444kts
17-Sep-20 16:10 36.266365 -116.399008 312 26715ft 450kts
17-Sep-20 16:11 36.358207 -116.505937 312 28197ft 457kts
17-Sep-20 16:12 36.451092 -116.614452 312 29718ft 459kts
17-Sep-20 16:13 36.543824 -116.723165 312 31239ft 458kts
17-Sep-20 16:14 36.650179 -116.813298 324 32042ft 474kts
17-Sep-20 16:15 36.762645 -116.898835 323 32043ft 473kts
17-Sep-20 16:16 36.874778 -116.984424 323 32116ft 473kts
17-Sep-20 16:17 36.986388 -117.069897 322 32220ft 472kts
17-Sep-20 16:18 37.098939 -117.156409 321 32206ft 478kts
17-Sep-20 16:19 37.212553 -117.243988 321 32210ft 480kts
17-Sep-20 16:20 37.327349 -117.329104 325 32210ft 483kts
17-Sep-20 16:21 37.446901 -117.406489 325 32189ft 484kts
17-Sep-20 16:22 37.566187 -117.484003 325 32197ft 484kts
17-Sep-20 16:23 37.685439 -117.561783 325 32209ft 484kts
17-Sep-20 16:24 37.805223 -117.640188 325 32192ft 483kts
17-Sep-20 16:25 37.924283 -117.718410 325 32155ft 483kts
17-Sep-20 16:26 38.037339 -117.806917 312 32182ft 470kts
17-Sep-20 16:27 38.136921 -117.914241 312 32178ft 470kts
17-Sep-20 16:28 38.236345 -118.021632 312 32132ft 470kts
17-Sep-20 16:29 38.335774 -118.129446 312 32109ft 469kts
17-Sep-20 16:30 38.434960 -118.237416 312 32108ft 469kts
17-Sep-20 16:31 38.534259 -118.345913 312 32109ft 470kts
17-Sep-20 16:32 38.633398 -118.454635 312 32109ft 470kts
17-Sep-20 16:33 38.732180 -118.563378 312 32109ft 469kts
17-Sep-20 16:34 38.830886 -118.672444 311 32110ft 469kts
17-Sep-20 16:35 38.929521 -118.781859 311 32099ft 470kts
17-Sep-20 16:36 39.028640 -118.892215 311 32082ft 473kts
17-Sep-20 16:37 39.128146 -119.003438 310 32080ft 475kts
17-Sep-20 16:38 39.232606 -119.109110 327 32102ft 495kts
17-Sep-20 16:39 39.364750 -119.165309 335 32116ft 504kts
17-Sep-20 16:40 39.498386 -119.220031 335 32100ft 504kts
17-Sep-20 16:42 39.632153 -119.274999 334 32099ft 504kts
17-Sep-20 16:43 39.765460 -119.329983 335 32105ft 504kts
17-Sep-20 16:44 39.898806 -119.385217 334 32136ft 504kts
17-Sep-20 16:45 40.031814 -119.440749 335 32153ft 504kts
17-Sep-20 16:46 40.165555 -119.496304 334 32145ft 503kts
17-Sep-20 16:47 40.298552 -119.552102 334 32155ft 504kts
17-Sep-20 16:48 40.431652 -119.608148 334 32146ft 504kts
17-Sep-20 16:49 40.564978 -119.664522 334 32134ft 503kts
17-Sep-20 16:50 40.697775 -119.720900 334 32122ft 502kts
17-Sep-20 16:51 40.830337 -119.777406 334 32114ft 502kts
17-Sep-20 16:52 40.962995 -119.834191 334 32080ft 502kts
17-Sep-20 16:53 41.096248 -119.891491 335 32082ft 506kts
17-Sep-20 16:54 41.229408 -119.948986 335 32082ft 506kts
17-Sep-20 16:55 41.363030 -120.006932 335 32082ft 506kts
17-Sep-20 16:55 41.474335 -120.055390 335 32082ft 506kts
17-Sep-20 16:57 41.629918 -120.123417 335 32083ft 506kts
17-Sep-20 16:58 41.764020 -120.182330 335 32090ft 506kts
17-Sep-20 16:59 41.897530 -120.241245 335 32104ft 506kts
17-Sep-20 16:59 42.008473 -120.290393 335 32108ft 506kts
17-Sep-20 17:00 42.141819 -120.349712 335 32108ft 506kts
17-Sep-20 17:01 42.275349 -120.409376 335 32108ft 506kts
17-Sep-20 17:02 42.408272 -120.469254 335 32109ft 506kts
17-Sep-20 17:03 42.541944 -120.529238 337 32109ft 507kts
17-Sep-20 17:05 42.704073 -120.576944 343 32108ft 513kts
17-Sep-20 17:05 42.812342 -120.633327 332 32108ft 502kts
17-Sep-20 17:06 42.943527 -120.699809 333 32108ft 506kts
17-Sep-20 17:07 43.076976 -120.766083 334 32092ft 512kts
17-Sep-20 17:08 43.210404 -120.832546 334 32010ft 510kts
17-Sep-20 17:09 43.337963 -120.911945 327 32017ft 504kts
17-Sep-20 17:10 43.463818 -120.997431 328 32016ft 506kts
17-Sep-20 17:11 43.591362 -121.083019 328 32006ft 514kts
17-Sep-20 17:12 43.720918 -121.170165 328 32006ft 520kts
17-Sep-20 17:13 43.850903 -121.257999 328 32008ft 521kts
17-Sep-20 17:14 43.980693 -121.346149 328 32008ft 521kts
17-Sep-20 17:15 44.111078 -121.435126 328 32005ft 521kts
17-Sep-20 17:16 44.240552 -121.523917 328 32001ft 520kts
17-Sep-20 17:17 44.370502 -121.613476 328 31998ft 520kts
17-Sep-20 17:18 44.500121 -121.703251 327 31988ft 520kts
17-Sep-20 17:19 44.629541 -121.793340 327 31990ft 520kts
17-Sep-20 17:20 44.758608 -121.883638 327 31984ft 520kts
17-Sep-20 17:21 44.884318 -121.972013 327 31099ft 486kts
17-Sep-20 17:22 45.002504 -122.055558 328 29955ft 470kts
17-Sep-20 17:23 45.118063 -122.137520 329 28791ft 461kts
17-Sep-20 17:24 45.231035 -122.218065 329 27803ft 451kts
17-Sep-20 17:25 45.342174 -122.297622 329 26822ft 444kts
17-Sep-20 17:26 45.451209 -122.376034 329 25835ft 437kts
17-Sep-20 17:27 45.558372 -122.453433 329 24852ft 429kts
17-Sep-20 17:28 45.663779 -122.529891 330 23866ft 421kts
17-Sep-20 17:29 45.769907 -122.597051 348 22895ft 420kts
17-Sep-20 17:30 45.883903 -122.625135 349 21996ft 411kts
17-Sep-20 17:31 45.996553 -122.653120 348 21993ft 412kts
17-Sep-20 17:32 46.109547 -122.680552 350 21955ft 412kts
17-Sep-20 17:33 46.221749 -122.702679 350 20861ft 404kts
17-Sep-20 17:34 46.331459 -122.722690 357 19684ft 395kts
17-Sep-20 17:35 46.439813 -122.726500 357 18512ft 386kts
17-Sep-20 17:36 46.545960 -122.730347 357 17319ft 377kts
17-Sep-20 17:37 46.649385 -122.734095 357 16130ft 368kts
17-Sep-20 17:38 46.750285 -122.737756 358 14812ft 359kts
17-Sep-20 17:39 46.834955 -122.679325 40 13368ft 339kts
17-Sep-20 17:40 46.902336 -122.588427 44 12033ft 316kts
17-Sep-20 17:41 46.962234 -122.499072 47 11417ft 304kts
17-Sep-20 17:42 47.029506 -122.428842 32 10097ft 297kts
17-Sep-20 17:43 47.100048 -122.369193 31 8650ft 288kts
17-Sep-20 17:44 47.174054 -122.330047 11 6942ft 290kts
17-Sep-20 17:45 47.242784 -122.316275 4 6549ft 254kts
17-Sep-20 17:46 47.300653 -122.315305 7 5719ft 178kts
17-Sep-20 17:47 47.353189 -122.308271 359 3015ft 212kts
17-Sep-20 17:48 47.410049 -122.307669 352 846ft 192kts
17-Sep-20 17:49 47.449553 -122.307982 1 408ft 69kts
17-Sep-20 17:50 47.452528 -122.306645 91 423ft 0kts
17-Sep-20 17:51 47.451358 -122.306193 185 418ft 14kts
17-Sep-20 17:52 47.445885 -122.306263 181 395ft 3kts
17-Sep-20 17:53 47.444694 -122.305522 121 393ft 4kts
17-Sep-20 17:54 47.444196 -122.304373 125 390ft 0kts
17-Sep-20 17:55 47.444196 -122.304373 125 390ft 0kts

Navigation Log

Ident Type
Flight plan parsing failed, navigation log unavailable